createdAt,value
2019-05-11T00:00:33.082Z,53.01
2019-05-11T00:02:59.095Z,53.01
2019-05-11T00:05:25.122Z,52.98
2019-05-11T00:07:51.143Z,52.96
2019-05-11T00:10:17.164Z,52.98
2019-05-11T00:12:43.173Z,52.95
2019-05-11T00:15:09.200Z,52.97
2019-05-11T00:17:35.215Z,52.94
2019-05-11T00:20:01.376Z,52.86
2019-05-11T00:22:27.351Z,52.99
2019-05-11T00:24:53.379Z,52.98
2019-05-11T00:27:19.399Z,53.01
2019-05-11T00:29:45.411Z,52.91
2019-05-11T00:32:11.428Z,52.97
2019-05-11T00:34:37.441Z,52.98
2019-05-11T00:37:03.467Z,52.98
2019-05-11T00:39:29.477Z,52.91
2019-05-11T00:41:55.523Z,52.96
2019-05-11T00:44:21.551Z,52.91
2019-05-11T00:46:47.561Z,52.94
2019-05-11T00:49:13.581Z,52.95
2019-05-11T00:51:39.592Z,52.92
2019-05-11T00:54:05.611Z,52.91
2019-05-11T00:56:31.633Z,52.88
2019-05-11T00:58:57.654Z,52.92
2019-05-11T01:01:23.664Z,52.84
2019-05-11T01:03:49.735Z,52.85
2019-05-11T01:06:15.761Z,52.90
2019-05-11T01:08:41.760Z,52.91
2019-05-11T01:11:07.781Z,52.91
2019-05-11T01:13:33.801Z,52.89
2019-05-11T01:15:59.819Z,52.88
2019-05-11T01:18:25.841Z,52.83
2019-05-11T01:20:51.870Z,52.88
2019-05-11T01:23:17.885Z,52.76
2019-05-11T01:25:43.924Z,52.89
2019-05-11T01:28:09.967Z,52.85
2019-05-11T01:30:38.686Z,52.85
2019-05-11T01:33:02.003Z,52.87
2019-05-11T01:35:28.019Z,52.82
2019-05-11T01:37:54.132Z,52.79
2019-05-11T01:40:20.144Z,52.78
2019-05-11T01:42:46.186Z,52.87
2019-05-11T01:45:12.211Z,52.81
2019-05-11T01:47:38.212Z,52.81
2019-05-11T01:50:04.228Z,52.79
2019-05-11T01:52:30.247Z,52.83
2019-05-11T01:54:56.267Z,52.80
2019-05-11T01:57:22.272Z,52.83
2019-05-11T01:59:48.290Z,52.81
2019-05-11T02:02:14.307Z,52.78
2019-05-11T02:04:40.364Z,52.71
2019-05-11T02:07:06.377Z,52.83
2019-05-11T02:09:32.389Z,52.79
2019-05-11T02:11:58.413Z,52.78
2019-05-11T02:14:24.436Z,52.80
2019-05-11T02:16:50.444Z,52.79
2019-05-11T02:19:16.459Z,52.81
2019-05-11T02:21:42.477Z,52.78
2019-05-11T02:24:08.486Z,52.79
2019-05-11T02:26:34.505Z,52.79
2019-05-11T02:29:00.520Z,52.76
2019-05-11T02:31:26.647Z,52.76
2019-05-11T02:33:52.559Z,52.77
2019-05-11T02:36:18.600Z,52.72
2019-05-11T02:38:44.618Z,52.75
2019-05-11T02:41:10.640Z,52.73
2019-05-11T02:43:36.651Z,52.75
2019-05-11T02:46:02.678Z,52.69
2019-05-11T02:48:28.704Z,52.74
2019-05-11T02:50:54.719Z,52.74
2019-05-11T02:53:20.805Z,52.74
2019-05-11T02:55:46.801Z,52.74
2019-05-11T02:58:12.810Z,52.75
2019-05-11T03:00:38.833Z,52.69
2019-05-11T03:03:04.848Z,52.68
2019-05-11T03:05:30.867Z,52.67
2019-05-11T03:07:56.873Z,52.73
2019-05-11T03:10:22.896Z,52.72
2019-05-11T03:12:48.905Z,52.72
2019-05-11T03:15:14.941Z,52.72
2019-05-11T03:17:40.953Z,52.69
2019-05-11T03:20:06.968Z,52.70
2019-05-11T03:22:32.989Z,52.67
2019-05-11T03:24:58.998Z,52.70
2019-05-11T03:27:25.022Z,52.70
2019-05-11T03:29:51.031Z,52.70
2019-05-11T03:32:17.054Z,52.68
2019-05-11T03:34:43.074Z,52.70
2019-05-11T03:37:09.093Z,52.68
2019-05-11T03:39:35.113Z,52.65
2019-05-11T03:42:13.792Z,52.67
2019-05-11T03:44:27.148Z,52.67
2019-05-11T03:46:53.193Z,52.67
2019-05-11T03:49:19.208Z,52.67
2019-05-11T03:51:45.229Z,52.65
2019-05-11T03:54:11.236Z,52.68
2019-05-11T03:56:37.253Z,52.66
2019-05-11T03:59:03.282Z,52.63
2019-05-11T04:01:29.293Z,52.67
2019-05-11T04:03:55.302Z,52.64
2019-05-11T04:06:21.314Z,52.65
2019-05-11T04:08:47.348Z,52.61
2019-05-11T04:11:13.477Z,52.63
2019-05-11T04:13:39.517Z,52.69
2019-05-11T04:16:05.499Z,52.72
2019-05-11T04:18:31.519Z,52.69
2019-05-11T04:20:57.509Z,52.71
2019-05-11T04:23:23.533Z,52.84
2019-05-11T04:25:49.606Z,52.87
2019-05-11T04:28:15.623Z,52.90
2019-05-11T04:30:41.629Z,52.96
2019-05-11T04:33:07.652Z,52.76
2019-05-11T04:35:33.667Z,53.00
2019-05-11T04:37:59.674Z,53.26
2019-05-11T04:40:25.691Z,53.26
2019-05-11T04:42:55.599Z,53.23
2019-05-11T04:45:17.710Z,53.29
2019-05-11T04:47:43.740Z,53.24
2019-05-11T04:50:09.730Z,53.21
2019-05-11T04:52:35.748Z,53.28
2019-05-11T04:55:01.771Z,53.26
2019-05-11T04:57:27.757Z,53.21
2019-05-11T04:59:53.778Z,53.28
2019-05-11T05:02:19.784Z,53.09
2019-05-11T05:04:45.798Z,53.26
2019-05-11T05:07:12.341Z,53.31
2019-05-11T05:09:42.423Z,53.31
2019-05-11T05:12:08.411Z,53.29
2019-05-11T05:14:29.886Z,53.16
2019-05-11T05:16:55.906Z,53.16
2019-05-11T05:19:21.900Z,53.03
2019-05-11T05:21:47.907Z,53.08
2019-05-11T05:24:14.764Z,53.03
2019-05-11T05:26:40.853Z,53.17
2019-05-11T05:29:08.827Z,53.25
2019-05-11T05:31:36.675Z,53.38
2019-05-11T05:34:10.096Z,53.22
2019-05-11T05:36:36.091Z,53.19
2019-05-11T05:39:02.115Z,53.50
2019-05-11T05:41:31.207Z,53.64
2019-05-11T05:43:57.226Z,53.72
2019-05-11T05:46:23.244Z,53.67
2019-05-11T05:48:49.267Z,53.99
2019-05-11T05:51:15.313Z,54.10
2019-05-11T05:53:41.323Z,53.74
2019-05-11T05:56:07.343Z,53.43
2019-05-11T05:58:33.387Z,54.25
2019-05-11T06:00:59.369Z,54.40
2019-05-11T06:03:25.387Z,54.37
2019-05-11T06:05:51.401Z,54.46
2019-05-11T06:08:17.427Z,54.38
2019-05-11T06:10:43.435Z,54.24
2019-05-11T06:13:09.437Z,54.19
2019-05-11T06:15:35.485Z,54.14
2019-05-11T06:18:01.523Z,54.38
2019-05-11T06:20:27.538Z,54.19
2019-05-11T06:22:53.541Z,54.48
2019-05-11T06:25:23.084Z,54.81
2019-05-11T06:27:49.079Z,54.55
2019-05-11T06:30:15.103Z,54.07
2019-05-11T06:32:41.129Z,54.22
2019-05-11T06:35:07.125Z,54.18
2019-05-11T06:37:33.376Z,54.19
2019-05-11T06:39:59.406Z,54.33
2019-05-11T06:42:25.423Z,54.77
2019-05-11T06:44:51.441Z,54.16
2019-05-11T06:47:17.507Z,54.05
2019-05-11T06:49:43.808Z,54.54
2019-05-11T06:52:09.816Z,54.11
2019-05-11T06:54:35.866Z,54.20
2019-05-11T06:57:01.950Z,54.27
2019-05-11T06:59:27.960Z,54.40
2019-05-11T07:02:01.891Z,54.51
2019-05-11T07:04:27.892Z,54.16
2019-05-11T07:06:54.594Z,54.21
2019-05-11T07:09:20.607Z,54.47
2019-05-11T07:11:57.214Z,54.53
2019-05-11T07:14:23.195Z,54.44
2019-05-11T07:16:49.215Z,54.46
2019-05-11T07:19:15.217Z,54.27
2019-05-11T07:21:41.290Z,53.96
2019-05-11T07:24:09.664Z,54.37
2019-05-11T07:26:35.674Z,54.14
2019-05-11T07:29:01.724Z,54.08
2019-05-11T07:31:27.732Z,54.03
2019-05-11T07:33:53.749Z,53.94
2019-05-11T07:36:19.746Z,54.20
2019-05-11T07:38:45.762Z,53.87
2019-05-11T07:41:12.483Z,53.99
2019-05-11T07:43:38.504Z,53.75
2019-05-11T07:46:04.545Z,53.93
2019-05-11T07:48:30.703Z,53.95
2019-05-11T07:50:58.425Z,53.92
2019-05-11T07:53:22.723Z,53.58
2019-05-11T07:55:48.739Z,53.49
2019-05-11T07:58:14.771Z,53.45
2019-05-11T08:00:40.800Z,53.62
2019-05-11T08:03:08.937Z,53.42
2019-05-11T08:05:32.863Z,53.57
2019-05-11T08:07:59.532Z,53.36
2019-05-11T08:10:24.886Z,53.50
2019-05-11T08:12:50.906Z,53.33
2019-05-11T08:15:18.353Z,53.60
2019-05-11T08:17:42.927Z,53.43
2019-05-11T08:20:08.915Z,53.58
2019-05-11T08:22:34.992Z,53.64
2019-05-11T08:25:00.978Z,53.61
2019-05-11T08:27:28.534Z,53.50
2019-05-11T08:29:53.012Z,53.53
2019-05-11T08:32:19.024Z,53.47
2019-05-11T08:34:45.195Z,53.49
2019-05-11T08:37:11.218Z,53.74
2019-05-11T08:39:38.695Z,53.67
2019-05-11T08:42:04.991Z,53.79
2019-05-11T08:44:30.923Z,53.84
2019-05-11T08:46:58.213Z,54.02
2019-05-11T08:49:22.987Z,54.03
2019-05-11T08:51:48.978Z,54.07
2019-05-11T08:54:15.040Z,54.06
2019-05-11T08:56:41.035Z,54.16
2019-05-11T08:59:07.975Z,54.26
2019-05-11T09:01:33.078Z,54.30
2019-05-11T09:03:59.102Z,54.08
2019-05-11T09:06:25.109Z,54.41
2019-05-11T09:08:51.107Z,54.39
2019-05-11T09:11:19.030Z,54.24
2019-05-11T09:13:43.127Z,54.22
2019-05-11T09:16:09.149Z,54.42
2019-05-11T09:18:35.174Z,54.35
2019-05-11T09:21:01.188Z,54.03
2019-05-11T09:23:34.572Z,53.98
2019-05-11T09:25:53.196Z,54.12
2019-05-11T09:28:19.264Z,54.03
2019-05-11T09:30:45.258Z,53.91
2019-05-11T09:33:11.585Z,53.93
2019-05-11T09:35:47.525Z,53.85
2019-05-11T09:38:03.686Z,53.76
2019-05-11T09:40:29.679Z,53.70
2019-05-11T09:42:55.708Z,53.66
2019-05-11T09:45:21.758Z,53.64
2019-05-11T09:47:47.892Z,53.60
2019-05-11T09:50:13.776Z,53.59
2019-05-11T09:52:39.784Z,53.70
2019-05-11T09:55:05.784Z,54.02
2019-05-11T09:57:31.806Z,54.20
2019-05-11T09:59:58.322Z,53.95
2019-05-11T10:02:23.820Z,54.05
2019-05-11T10:04:49.833Z,54.23
2019-05-11T10:07:17.939Z,54.01
2019-05-11T10:09:41.857Z,54.39
2019-05-11T10:12:08.280Z,54.70
2019-05-11T10:14:34.087Z,54.26
2019-05-11T10:17:00.080Z,54.57
2019-05-11T10:19:28.245Z,55.00
2019-05-11T10:21:52.096Z,55.04
2019-05-11T10:24:18.095Z,55.31
2019-05-11T10:26:44.553Z,55.17
2019-05-11T10:29:11.292Z,55.70
2019-05-11T10:31:38.545Z,55.71
2019-05-11T10:34:04.124Z,55.29
2019-05-11T10:36:30.141Z,55.50
2019-05-11T10:38:58.650Z,55.07
2019-05-11T10:41:22.211Z,55.03
2019-05-11T10:43:48.983Z,54.96
2019-05-11T10:46:19.359Z,54.86
2019-05-11T10:48:40.273Z,54.78
2019-05-11T10:51:08.263Z,54.88
2019-05-11T10:53:32.416Z,55.07
2019-05-11T10:55:58.429Z,55.02
2019-05-11T10:58:24.479Z,54.78
2019-05-11T11:00:50.482Z,55.24
2019-05-11T11:03:17.876Z,55.33
2019-05-11T11:05:42.508Z,54.91
2019-05-11T11:08:08.534Z,54.95
2019-05-11T11:10:34.542Z,54.84
2019-05-11T11:13:00.564Z,55.09
2019-05-11T11:15:28.847Z,55.35
2019-05-11T11:17:52.849Z,55.63
2019-05-11T11:20:18.909Z,55.16
2019-05-11T11:22:44.890Z,55.49
2019-05-11T11:25:10.861Z,55.57
2019-05-11T11:27:38.118Z,55.39
2019-05-11T11:30:02.988Z,54.77
2019-05-11T11:32:29.627Z,54.80
2019-05-11T11:34:57.797Z,54.93
2019-05-11T11:37:21.639Z,55.03
2019-05-11T11:39:47.748Z,54.67
2019-05-11T11:42:13.728Z,54.75
2019-05-11T11:44:39.703Z,55.25
2019-05-11T11:47:05.768Z,54.91
2019-05-11T11:49:31.937Z,55.08
2019-05-11T11:51:58.072Z,55.30
2019-05-11T11:54:24.004Z,55.39
2019-05-11T11:56:50.011Z,55.36
2019-05-11T11:59:17.838Z,54.74
2019-05-11T12:01:42.107Z,55.18
2019-05-11T12:04:08.367Z,54.67
2019-05-11T12:06:34.127Z,54.89
2019-05-11T12:09:00.117Z,54.91
2019-05-11T12:11:27.921Z,54.76
2019-05-11T12:13:52.144Z,54.68
2019-05-11T12:16:18.335Z,54.76
2019-05-11T12:18:44.197Z,55.03
2019-05-11T12:21:10.192Z,54.79
2019-05-11T12:23:38.177Z,55.10
2019-05-11T12:26:02.209Z,54.94
2019-05-11T12:28:28.286Z,54.85
2019-05-11T12:30:54.294Z,54.82
2019-05-11T12:33:20.312Z,54.50
2019-05-11T12:35:48.185Z,54.71
2019-05-11T12:38:12.369Z,54.57
2019-05-11T12:40:38.889Z,54.93
2019-05-11T12:43:04.406Z,54.87
2019-05-11T12:45:30.450Z,54.54
2019-05-11T12:47:58.563Z,54.79
2019-05-11T12:50:22.543Z,54.73
2019-05-11T12:52:48.568Z,54.67
2019-05-11T12:55:14.565Z,54.50
2019-05-11T12:57:40.597Z,54.70
2019-05-11T13:00:08.612Z,54.91
2019-05-11T13:02:32.657Z,54.93
2019-05-11T13:04:58.960Z,54.53
2019-05-11T13:07:24.953Z,54.96
2019-05-11T13:09:51.007Z,54.77
2019-05-11T13:12:18.651Z,54.56
2019-05-11T13:14:43.018Z,55.12
2019-05-11T13:17:09.013Z,55.09
2019-05-11T13:19:35.023Z,54.74
2019-05-11T13:22:01.232Z,55.13
2019-05-11T13:24:28.199Z,54.72
2019-05-11T13:26:53.338Z,54.83
2019-05-11T13:29:19.454Z,54.88
2019-05-11T13:31:45.463Z,54.60
2019-05-11T13:34:11.468Z,54.82
2019-05-11T13:36:38.127Z,54.74
2019-05-11T13:39:03.503Z,55.05
2019-05-11T13:41:29.500Z,54.65
2019-05-11T13:43:57.567Z,54.95
2019-05-11T13:46:21.518Z,54.96
2019-05-11T13:48:47.845Z,54.92
2019-05-11T13:51:13.737Z,54.72
2019-05-11T13:53:39.855Z,54.44
2019-05-11T13:56:07.778Z,54.81
2019-05-11T13:58:31.889Z,54.62
2019-05-11T14:00:58.511Z,54.50
2019-05-11T14:03:23.929Z,54.60
2019-05-11T14:05:49.983Z,54.51
2019-05-11T14:08:18.363Z,54.42
2019-05-11T14:10:42.113Z,54.49
2019-05-11T14:13:08.758Z,54.40
2019-05-11T14:15:34.285Z,54.61
2019-05-11T14:18:07.715Z,54.50
2019-05-11T14:20:28.739Z,54.44
2019-05-11T14:22:52.432Z,54.26
2019-05-11T14:25:18.888Z,54.44
2019-05-11T14:27:44.482Z,54.36
2019-05-11T14:30:10.525Z,54.29
2019-05-11T14:32:38.379Z,54.47
2019-05-11T14:35:02.545Z,54.53
2019-05-11T14:37:28.740Z,54.12
2019-05-11T14:39:54.742Z,54.39
2019-05-11T14:42:22.315Z,54.15
2019-05-11T14:44:48.301Z,54.42
2019-05-11T14:47:12.792Z,54.43
2019-05-11T14:49:38.835Z,54.45
2019-05-11T14:52:04.851Z,54.34
2019-05-11T14:54:30.900Z,54.29
2019-05-11T14:56:58.579Z,54.40
2019-05-11T14:59:22.940Z,54.47
2019-05-11T15:01:49.137Z,54.22
2019-05-11T15:04:14.970Z,54.50
2019-05-11T15:06:41.376Z,54.46
2019-05-11T15:09:07.822Z,54.27
2019-05-11T15:11:33.435Z,54.53
2019-05-11T15:13:59.485Z,54.38
2019-05-11T15:16:27.735Z,54.56
2019-05-11T15:18:51.513Z,54.38
2019-05-11T15:21:18.875Z,54.56
2019-05-11T15:23:44.012Z,54.38
2019-05-11T15:26:10.207Z,54.62
2019-05-11T15:28:37.983Z,54.79
2019-05-11T15:31:02.117Z,54.75
2019-05-11T15:33:28.165Z,54.42
2019-05-11T15:35:54.183Z,54.71
2019-05-11T15:38:20.180Z,54.68
2019-05-11T15:40:48.557Z,54.35
2019-05-11T15:43:12.200Z,54.49
2019-05-11T15:45:38.322Z,54.56
2019-05-11T15:48:04.303Z,54.64
2019-05-11T15:50:30.288Z,54.42
2019-05-11T15:52:58.179Z,54.51
2019-05-11T15:55:22.296Z,54.26
2019-05-11T15:57:48.573Z,54.50
2019-05-11T16:00:14.319Z,54.45
2019-05-11T16:02:41.207Z,54.45
2019-05-11T16:05:08.469Z,54.50
2019-05-11T16:07:32.548Z,54.41
2019-05-11T16:09:58.543Z,54.47
2019-05-11T16:12:24.624Z,54.22
2019-05-11T16:14:50.642Z,54.44
2019-05-11T16:17:16.626Z,54.37
2019-05-11T16:19:43.149Z,54.07
2019-05-11T16:22:10.058Z,54.24
2019-05-11T16:24:35.147Z,54.26
2019-05-11T16:27:01.266Z,54.15
2019-05-11T16:29:28.026Z,54.12
2019-05-11T16:31:53.405Z,54.21
2019-05-11T16:34:19.492Z,54.01
2019-05-11T16:36:47.879Z,54.16
2019-05-11T16:39:11.582Z,54.06
2019-05-11T16:41:38.203Z,54.02
2019-05-11T16:44:03.854Z,54.15
2019-05-11T16:46:29.850Z,54.07
2019-05-11T16:48:57.840Z,54.13
2019-05-11T16:51:22.001Z,54.04
2019-05-11T16:53:48.149Z,53.98
2019-05-11T16:56:14.048Z,54.08
2019-05-11T16:58:41.105Z,53.96
2019-05-11T17:01:08.407Z,54.12
2019-05-11T17:03:32.104Z,54.22
2019-05-11T17:05:58.853Z,54.31
2019-05-11T17:08:24.106Z,54.12
2019-05-11T17:10:53.251Z,54.27
2019-05-11T17:13:18.050Z,54.33
2019-05-11T17:15:42.154Z,54.39
2019-05-11T17:18:08.227Z,54.36
2019-05-11T17:20:34.247Z,54.30
2019-05-11T17:23:00.248Z,54.57
2019-05-11T17:25:28.644Z,54.43
2019-05-11T17:27:52.493Z,54.72
2019-05-11T17:30:19.340Z,54.58
2019-05-11T17:32:44.640Z,54.08
2019-05-11T17:35:10.650Z,54.17
2019-05-11T17:37:38.079Z,54.30
2019-05-11T17:40:02.959Z,54.43
2019-05-11T17:42:28.962Z,54.14
2019-05-11T17:44:55.078Z,54.29
2019-05-11T17:47:23.685Z,54.43
2019-05-11T17:49:57.392Z,54.56
2019-05-11T17:52:13.136Z,54.23
2019-05-11T17:54:39.174Z,54.26
2019-05-11T17:57:05.302Z,54.06
2019-05-11T17:59:31.198Z,54.15
2019-05-11T18:01:58.055Z,54.25
2019-05-11T18:04:23.234Z,54.20
2019-05-11T18:06:49.253Z,54.30
2019-05-11T18:09:15.295Z,54.38
2019-05-11T18:11:41.291Z,54.51
2019-05-11T18:14:08.356Z,54.47
2019-05-11T18:16:33.341Z,54.71
2019-05-11T18:18:59.414Z,54.62
2019-05-11T18:21:25.425Z,54.64
2019-05-11T18:23:51.467Z,54.98
2019-05-11T18:26:18.070Z,55.23
2019-05-11T18:28:43.513Z,55.14
2019-05-11T18:31:09.532Z,54.94
2019-05-11T18:33:35.541Z,55.05
2019-05-11T18:36:01.559Z,55.09
2019-05-11T18:38:27.777Z,55.22
2019-05-11T18:40:53.590Z,55.01
2019-05-11T18:43:19.585Z,55.05
2019-05-11T18:45:45.609Z,55.39
2019-05-11T18:48:11.611Z,55.41
2019-05-11T18:50:38.395Z,55.40
2019-05-11T18:53:03.670Z,54.96
2019-05-11T18:55:29.692Z,55.14
2019-05-11T18:57:57.986Z,55.04
2019-05-11T19:00:21.760Z,54.85
2019-05-11T19:02:49.339Z,55.09
2019-05-11T19:05:13.792Z,54.90
2019-05-11T19:07:39.785Z,55.54
2019-05-11T19:10:08.256Z,55.64
2019-05-11T19:12:31.878Z,55.77
2019-05-11T19:14:58.723Z,55.35
2019-05-11T19:17:24.209Z,55.43
2019-05-11T19:19:50.606Z,55.55
2019-05-11T19:22:18.309Z,55.16
2019-05-11T19:24:42.756Z,55.37
2019-05-11T19:27:08.762Z,55.50
2019-05-11T19:29:34.869Z,55.29
2019-05-11T19:32:00.859Z,55.57
2019-05-11T19:34:28.142Z,55.50
2019-05-11T19:36:53.040Z,55.11
2019-05-11T19:39:19.481Z,55.43
2019-05-11T19:41:45.088Z,55.09
2019-05-11T19:44:11.266Z,54.99
2019-05-11T19:46:38.801Z,55.13
2019-05-11T19:49:03.677Z,55.20
2019-05-11T19:51:29.926Z,54.96
2019-05-11T19:53:57.612Z,55.00
2019-05-11T19:56:22.042Z,55.14
2019-05-11T19:58:48.523Z,55.10
2019-05-11T20:01:14.068Z,55.09
2019-05-11T20:03:40.126Z,55.16
2019-05-11T20:06:08.529Z,55.35
2019-05-11T20:08:32.266Z,55.29
2019-05-11T20:10:58.269Z,54.84
2019-05-11T20:13:24.280Z,55.05
2019-05-11T20:15:50.562Z,54.94
2019-05-11T20:18:18.354Z,55.12
2019-05-11T20:20:42.868Z,55.01
2019-05-11T20:23:09.049Z,55.05
2019-05-11T20:25:37.362Z,54.80
2019-05-11T20:28:01.127Z,55.03
2019-05-11T20:30:27.137Z,54.86
2019-05-11T20:32:53.762Z,54.99
2019-05-11T20:35:19.775Z,54.90
2019-05-11T20:37:45.838Z,54.91
2019-05-11T20:40:11.811Z,55.25
2019-05-11T20:42:38.151Z,54.95
2019-05-11T20:45:04.102Z,54.86
2019-05-11T20:47:30.094Z,54.94
2019-05-11T20:49:58.602Z,55.19
2019-05-11T20:52:22.832Z,54.81
2019-05-11T20:54:49.230Z,55.23
2019-05-11T20:57:15.303Z,55.17
2019-05-11T20:59:41.318Z,54.87
2019-05-11T21:02:09.234Z,54.85
2019-05-11T21:04:33.338Z,54.81
2019-05-11T21:06:59.421Z,54.74
2019-05-11T21:09:25.423Z,54.99
2019-05-11T21:11:51.505Z,54.94
2019-05-11T21:14:18.200Z,54.85
2019-05-11T21:16:43.619Z,54.87
2019-05-11T21:19:09.610Z,54.90
2019-05-11T21:21:49.472Z,54.77
2019-05-11T21:24:01.620Z,54.79
2019-05-11T21:26:28.255Z,54.72
2019-05-11T21:28:53.762Z,54.70
2019-05-11T21:31:19.754Z,54.47
2019-05-11T21:33:45.775Z,54.46
2019-05-11T21:36:11.800Z,54.64
2019-05-11T21:38:38.634Z,54.49
2019-05-11T21:41:03.839Z,54.38
2019-05-11T21:43:29.890Z,54.47
2019-05-11T21:45:58.307Z,54.52
2019-05-11T21:48:21.955Z,54.40
2019-05-11T21:50:47.940Z,54.42
2019-05-11T21:53:13.963Z,54.41
2019-05-11T21:55:39.954Z,54.54
2019-05-11T21:58:05.971Z,54.27
2019-05-11T22:00:31.977Z,54.45
2019-05-11T22:02:57.989Z,54.42
2019-05-11T22:05:24.016Z,54.29
2019-05-11T22:07:50.010Z,54.27
2019-05-11T22:10:17.697Z,54.36
2019-05-11T22:12:42.022Z,54.38
2019-05-11T22:15:09.122Z,54.44
2019-05-11T22:17:34.043Z,54.36
2019-05-11T22:20:00.037Z,54.51
2019-05-11T22:22:28.558Z,54.27
2019-05-11T22:24:52.073Z,54.38
2019-05-11T22:27:18.530Z,54.21
2019-05-11T22:29:44.109Z,54.53
2019-05-11T22:32:10.141Z,54.52
2019-05-11T22:34:37.837Z,54.33
2019-05-11T22:37:02.156Z,54.60
2019-05-11T22:39:28.169Z,54.50
2019-05-11T22:41:54.172Z,54.60
2019-05-11T22:44:20.184Z,54.56
2019-05-11T22:46:47.892Z,54.41
2019-05-11T22:49:12.206Z,54.50
2019-05-11T22:51:38.223Z,54.67
2019-05-11T22:54:04.237Z,54.57
2019-05-11T22:56:30.236Z,54.58
2019-05-11T22:58:58.235Z,54.68
2019-05-11T23:01:22.258Z,54.71
2019-05-11T23:03:48.252Z,54.50
2019-05-11T23:06:14.283Z,54.80
2019-05-11T23:08:40.279Z,54.73
2019-05-11T23:11:10.286Z,54.60
2019-05-11T23:13:32.350Z,54.68
2019-05-11T23:15:58.492Z,54.75
2019-05-11T23:18:24.390Z,54.72
2019-05-11T23:20:50.407Z,54.57
2019-05-11T23:23:17.857Z,54.85
2019-05-11T23:25:42.414Z,54.76
2019-05-11T23:28:08.440Z,54.62
2019-05-11T23:30:34.434Z,54.57
2019-05-11T23:33:00.454Z,54.80
2019-05-11T23:35:28.410Z,54.83
2019-05-11T23:37:52.475Z,54.66
2019-05-11T23:40:18.487Z,54.84
2019-05-11T23:42:44.467Z,54.79
2019-05-11T23:45:10.487Z,54.84
2019-05-11T23:47:39.034Z,54.81
2019-05-11T23:50:02.535Z,54.94
2019-05-11T23:52:29.548Z,54.93
2019-05-11T23:54:54.536Z,54.65
2019-05-11T23:57:20.540Z,54.68
2019-05-11T23:59:47.769Z,54.59
